Time;durP1;ratioP1;P1;durP2;ratioP2;P2;SDS_P1;SDS_P2;PMS_P1;PMS_P2;Temp;Humidity;BMP_temperature;BMP_pressure;BME280_temperature;BME280_humidity;BME280_pressure;Samples;Min_cycle;Max_cycle;Signal;HPM_P1;HPM_P2
2023/04/12 00:00:10;;;;;;;5.83;2.53;;;7.70;99.90;;;;;;487236;244;27857;-76
2023/04/12 00:02:11;;;;;;;9.40;2.17;;;7.70;99.90;;;;;;487275;244;27492;-76
2023/04/12 00:04:14;;;;;;;3.07;2.10;;;7.60;99.90;;;;;;487272;244;27798;-75
2023/04/12 00:06:14;;;;;;;6.13;2.60;;;7.70;99.90;;;;;;487174;244;27958;-76
2023/04/12 00:08:15;;;;;;;4.30;1.83;;;7.60;99.90;;;;;;487327;244;27928;-75
2023/04/12 00:10:16;;;;;;;6.03;2.30;;;7.50;99.90;;;;;;487267;244;28009;-75
2023/04/12 00:12:18;;;;;;;4.47;2.60;;;7.50;99.90;;;;;;487271;244;27987;-75
2023/04/12 00:14:19;;;;;;;4.67;2.10;;;7.50;99.90;;;;;;487279;244;27938;-75
2023/04/12 00:16:20;;;;;;;4.90;2.10;;;7.50;99.90;;;;;;487206;244;27996;-76
2023/04/12 00:18:23;;;;;;;3.93;2.47;;;7.40;99.90;;;;;;487287;244;27865;-75
2023/04/12 00:20:23;;;;;;;3.97;2.33;;;7.50;99.90;;;;;;487123;244;28419;-75
2023/04/12 00:22:25;;;;;;;5.90;2.30;;;7.50;99.90;;;;;;487322;244;28459;-75
2023/04/12 00:24:25;;;;;;;5.03;1.90;;;7.50;99.90;;;;;;487204;244;28399;-75
2023/04/12 00:26:26;;;;;;;5.33;1.90;;;7.50;99.90;;;;;;487296;244;28499;-75
2023/04/12 00:28:27;;;;;;;8.43;2.30;;;7.40;99.90;;;;;;487271;244;28338;-75
2023/04/12 00:30:29;;;;;;;5.17;2.40;;;7.40;99.90;;;;;;487248;244;28187;-75
2023/04/12 00:32:30;;;;;;;7.07;2.57;;;7.40;99.90;;;;;;487307;244;27680;-75
2023/04/12 00:34:31;;;;;;;2.33;2.10;;;7.40;99.90;;;;;;487248;244;27683;-75
2023/04/12 00:36:32;;;;;;;2.00;1.80;;;7.50;99.90;;;;;;487271;244;27690;-75
2023/04/12 00:38:34;;;;;;;6.23;2.47;;;7.40;99.90;;;;;;487271;244;27961;-75
2023/04/12 00:40:35;;;;;;;3.17;2.40;;;7.40;99.90;;;;;;487270;244;27930;-75
2023/04/12 00:42:36;;;;;;;5.13;2.20;;;7.40;99.90;;;;;;487339;244;27618;-75
2023/04/12 00:44:37;;;;;;;7.00;2.13;;;7.50;99.90;;;;;;487117;244;27963;-75
2023/04/12 00:46:39;;;;;;;5.40;2.20;;;7.40;99.90;;;;;;487282;244;27672;-75
2023/04/12 00:48:40;;;;;;;2.87;1.90;;;7.40;99.90;;;;;;487292;244;27761;-75
2023/04/12 00:50:43;;;;;;;5.93;1.93;;;7.40;99.90;;;;;;487276;244;27894;-75
2023/04/12 00:52:42;;;;;;;4.33;1.83;;;7.40;99.90;;;;;;487178;244;28398;-75
2023/04/12 00:54:44;;;;;;;6.07;2.47;;;7.40;99.90;;;;;;487242;244;27955;-75
2023/04/12 00:56:46;;;;;;;9.37;2.50;;;7.30;99.90;;;;;;487309;244;28199;-75
2023/04/12 00:58:46;;;;;;;2.40;2.00;;;7.30;99.90;;;;;;487252;244;28195;-75
2023/04/12 01:00:51;;;;;;;3.53;2.00;;;7.30;99.90;;;;;;487242;243;28484;-75
2023/04/12 01:02:52;;;;;;;4.40;2.20;;;7.30;99.90;;;;;;487227;244;28393;-75
2023/04/12 01:04:52;;;;;;;5.40;2.00;;;7.30;99.90;;;;;;487205;244;30337;-75
2023/04/12 01:06:54;;;;;;;4.87;2.00;;;7.20;99.90;;;;;;487333;244;28235;-75
2023/04/12 01:08:55;;;;;;;5.47;1.77;;;7.30;99.90;;;;;;487246;244;27894;-75
2023/04/12 01:10:56;;;;;;;4.00;2.60;;;7.30;99.90;;;;;;487300;244;27786;-75
2023/04/12 01:12:57;;;;;;;6.83;2.53;;;7.30;99.90;;;;;;487255;244;27893;-75
2023/04/12 01:14:59;;;;;;;4.33;2.30;;;7.30;99.90;;;;;;487227;244;28111;-76
2023/04/12 01:17:01;;;;;;;3.30;2.20;;;7.30;99.90;;;;;;487281;244;28025;-75
2023/04/12 01:19:02;;;;;;;8.00;2.37;;;7.20;99.90;;;;;;487280;244;28144;-75
2023/04/12 01:21:02;;;;;;;2.20;1.87;;;7.30;99.90;;;;;;487255;244;27759;-75
2023/04/12 01:23:04;;;;;;;5.10;2.10;;;7.20;99.90;;;;;;487303;244;27924;-75
2023/04/12 01:25:05;;;;;;;4.43;2.67;;;7.20;99.90;;;;;;487221;244;27759;-75
2023/04/12 01:27:06;;;;;;;2.43;1.90;;;7.20;99.90;;;;;;487289;244;28057;-75
2023/04/12 01:29:08;;;;;;;4.00;1.90;;;7.20;99.90;;;;;;487326;244;28043;-75
2023/04/12 01:31:09;;;;;;;3.67;2.03;;;7.30;99.90;;;;;;487309;243;27967;-75
2023/04/12 01:33:10;;;;;;;3.40;2.30;;;7.30;99.90;;;;;;487326;244;27878;-75
2023/04/12 01:35:11;;;;;;;4.50;2.30;;;7.20;99.90;;;;;;487208;244;28349;-75
2023/04/12 01:37:13;;;;;;;3.73;2.30;;;7.30;99.90;;;;;;487295;243;28389;-75
2023/04/12 01:39:14;;;;;;;2.20;1.90;;;7.20;99.90;;;;;;487327;244;28420;-75
2023/04/12 01:41:15;;;;;;;4.77;2.23;;;7.20;99.90;;;;;;487288;244;28439;-75
2023/04/12 01:43:17;;;;;;;3.80;2.17;;;7.10;99.90;;;;;;487305;244;28389;-75
2023/04/12 01:45:17;;;;;;;2.30;2.00;;;7.10;99.90;;;;;;487229;244;28459;-75
2023/04/12 01:47:19;;;;;;;4.53;2.10;;;7.10;99.90;;;;;;487286;244;27872;-75
2023/04/12 01:49:20;;;;;;;3.80;2.03;;;7.10;99.90;;;;;;487317;244;27633;-75
2023/04/12 01:51:22;;;;;;;4.43;2.30;;;7.10;99.90;;;;;;487323;244;27586;-75
2023/04/12 01:53:22;;;;;;;4.57;2.43;;;7.10;99.90;;;;;;487253;244;27878;-75
2023/04/12 01:55:24;;;;;;;3.60;1.93;;;7.10;99.90;;;;;;487240;243;27618;-75
2023/04/12 01:57:25;;;;;;;5.60;2.43;;;7.10;99.90;;;;;;487258;244;27917;-75
2023/04/12 01:59:26;;;;;;;5.30;2.00;;;7.00;99.90;;;;;;487280;244;28390;-75
2023/04/12 02:01:28;;;;;;;5.23;2.40;;;7.10;99.90;;;;;;487316;244;27846;-75
2023/04/12 02:03:31;;;;;;;4.33;2.33;;;7.10;99.90;;;;;;487266;244;28069;-75
2023/04/12 02:05:33;;;;;;;6.73;2.40;;;7.10;99.90;;;;;;487239;244;28382;-75
2023/04/12 02:07:34;;;;;;;4.53;2.00;;;7.10;99.90;;;;;;487287;244;28298;-75
2023/04/12 02:09:35;;;;;;;4.93;2.03;;;7.10;99.90;;;;;;487267;244;28378;-75
2023/04/12 02:11:36;;;;;;;4.10;2.30;;;7.00;99.90;;;;;;487242;244;29553;-75
2023/04/12 02:13:38;;;;;;;4.20;2.47;;;7.00;99.90;;;;;;487312;244;27960;-75
2023/04/12 02:15:39;;;;;;;5.30;2.10;;;7.00;99.90;;;;;;487265;243;27978;-75
2023/04/12 02:17:40;;;;;;;3.03;2.10;;;7.00;99.90;;;;;;487279;244;28065;-75
2023/04/12 02:19:41;;;;;;;6.57;2.20;;;6.90;99.90;;;;;;487276;244;28042;-75
2023/04/12 02:21:43;;;;;;;4.23;2.27;;;6.90;99.90;;;;;;487273;244;27568;-75
2023/04/12 02:23:44;;;;;;;3.70;2.00;;;7.00;99.90;;;;;;487311;244;28040;-75
2023/04/12 02:25:45;;;;;;;3.07;2.07;;;7.00;99.90;;;;;;487224;244;27845;-75
2023/04/12 02:27:47;;;;;;;4.83;2.00;;;7.00;99.90;;;;;;487275;243;28002;-75
2023/04/12 02:29:48;;;;;;;2.60;2.10;;;7.00;99.90;;;;;;487219;244;27949;-75
2023/04/12 02:31:50;;;;;;;4.13;2.30;;;7.00;99.90;;;;;;487250;244;27979;-75
2023/04/12 02:33:50;;;;;;;5.43;2.40;;;7.00;99.90;;;;;;487284;243;27913;-75
2023/04/12 02:35:51;;;;;;;6.07;2.47;;;7.00;99.90;;;;;;487243;244;27684;-75
2023/04/12 02:37:53;;;;;;;6.07;2.40;;;7.00;99.90;;;;;;487295;244;27951;-75
2023/04/12 02:39:56;;;;;;;5.03;2.50;;;6.90;99.90;;;;;;487287;244;28047;-75
2023/04/12 02:41:55;;;;;;;8.87;2.33;;;7.00;99.90;;;;;;487176;244;28240;-75
2023/04/12 02:43:56;;;;;;;3.47;2.30;;;6.90;99.90;;;;;;487196;244;28589;-74
2023/04/12 02:45:58;;;;;;;3.70;2.27;;;7.00;99.90;;;;;;487254;244;28286;-75
2023/04/12 02:47:59;;;;;;;2.17;1.97;;;7.00;99.90;;;;;;487302;244;28546;-75
2023/04/12 02:50:01;;;;;;;4.27;2.63;;;7.00;99.90;;;;;;487293;244;28399;-75
2023/04/12 02:52:01;;;;;;;3.40;1.90;;;7.00;99.90;;;;;;487268;244;27889;-75
2023/04/12 02:54:03;;;;;;;2.80;1.97;;;7.00;99.90;;;;;;487282;244;27890;-74
2023/04/12 02:56:04;;;;;;;3.83;2.17;;;7.00;99.90;;;;;;487261;244;27675;-76
2023/04/12 02:58:05;;;;;;;3.33;2.13;;;7.00;99.90;;;;;;487316;244;27463;-75
2023/04/12 03:00:10;;;;;;;2.40;2.20;;;7.00;99.90;;;;;;487307;244;27938;-75
2023/04/12 03:02:08;;;;;;;6.47;2.90;;;7.00;99.90;;;;;;487004;244;27893;-75
2023/04/12 03:04:09;;;;;;;4.60;2.43;;;7.00;99.90;;;;;;487282;244;28007;-76
2023/04/12 03:06:10;;;;;;;2.83;2.10;;;7.00;99.90;;;;;;487268;243;28242;-76
2023/04/12 03:08:11;;;;;;;5.73;2.33;;;7.00;99.90;;;;;;487269;244;27930;-76
2023/04/12 03:10:13;;;;;;;5.50;2.43;;;7.00;99.90;;;;;;487287;243;27645;-75
2023/04/12 03:12:14;;;;;;;3.13;2.33;;;7.00;99.90;;;;;;487273;244;27521;-75
2023/04/12 03:14:16;;;;;;;3.17;1.80;;;7.00;99.90;;;;;;487229;244;27917;-75
2023/04/12 03:16:16;;;;;;;3.80;1.53;;;7.00;99.90;;;;;;487298;244;27922;-75
2023/04/12 03:18:22;;;;;;;4.47;2.10;;;7.10;99.90;;;;;;487379;243;28326;-75
2023/04/12 03:20:19;;;;;;;3.10;1.90;;;7.00;99.90;;;;;;487052;244;28342;-75
2023/04/12 03:22:21;;;;;;;4.17;2.10;;;7.00;99.90;;;;;;487276;244;28336;-75
2023/04/12 03:24:21;;;;;;;2.30;2.10;;;7.00;99.90;;;;;;487128;244;28398;-75
2023/04/12 03:26:25;;;;;;;2.80;1.97;;;7.00;99.90;;;;;;487342;244;28527;-75
2023/04/12 03:28:24;;;;;;;1.70;1.60;;;7.10;99.90;;;;;;487196;244;27761;-75
2023/04/12 03:30:25;;;;;;;4.70;2.07;;;7.00;99.90;;;;;;487311;244;27666;-75
2023/04/12 03:32:26;;;;;;;5.87;1.83;;;7.00;99.90;;;;;;487283;244;27917;-75
2023/04/12 03:34:34;;;;;;;3.70;2.20;;;7.00;99.90;;;;;;487209;244;27916;-75
2023/04/12 03:36:36;;;;;;;5.50;1.90;;;7.00;99.90;;;;;;487322;244;27903;-74
2023/04/12 03:38:36;;;;;;;4.47;1.97;;;7.10;99.90;;;;;;487249;244;27510;-75
2023/04/12 03:40:38;;;;;;;4.00;2.10;;;7.00;99.90;;;;;;487262;243;27901;-75
2023/04/12 03:42:39;;;;;;;3.07;1.97;;;7.10;99.90;;;;;;487279;244;27628;-74
2023/04/12 03:44:40;;;;;;;3.53;1.90;;;7.10;99.90;;;;;;487244;244;28376;-75
2023/04/12 03:46:41;;;;;;;3.63;1.87;;;7.00;99.90;;;;;;487298;244;27894;-75
2023/04/12 03:48:43;;;;;;;2.53;2.10;;;7.10;99.90;;;;;;487289;244;28415;-75
2023/04/12 03:50:44;;;;;;;4.13;2.00;;;7.10;99.90;;;;;;487290;243;28313;-75
2023/04/12 03:52:45;;;;;;;3.67;1.77;;;7.00;99.90;;;;;;487282;244;28898;-75
2023/04/12 03:54:46;;;;;;;2.70;1.77;;;7.10;99.90;;;;;;487256;244;28028;-75
2023/04/12 03:56:48;;;;;;;4.67;1.93;;;7.10;99.90;;;;;;487330;244;29169;-75
2023/04/12 03:58:49;;;;;;;3.33;2.00;;;7.10;99.90;;;;;;487312;243;28223;-75
2023/04/12 04:00:50;;;;;;;3.17;1.80;;;7.10;99.90;;;;;;487224;244;27606;-75
2023/04/12 04:02:51;;;;;;;4.83;2.40;;;7.10;99.90;;;;;;487273;244;28075;-75
2023/04/12 04:04:53;;;;;;;4.93;2.30;;;7.00;99.90;;;;;;487166;244;27403;-75
2023/04/12 04:06:54;;;;;;;3.57;2.37;;;7.00;99.90;;;;;;487270;244;27928;-75
2023/04/12 04:08:55;;;;;;;4.20;2.40;;;7.00;99.90;;;;;;487271;243;27518;-75
2023/04/12 04:10:56;;;;;;;4.13;1.90;;;7.00;99.90;;;;;;487284;244;27914;-75
2023/04/12 04:12:58;;;;;;;2.80;2.50;;;7.00;99.90;;;;;;487329;244;27517;-75
2023/04/12 04:14:59;;;;;;;3.87;2.13;;;7.10;99.90;;;;;;487243;244;28016;-75
2023/04/12 04:17:00;;;;;;;5.37;2.10;;;7.00;99.90;;;;;;487311;244;27942;-75
2023/04/12 04:19:01;;;;;;;2.40;2.20;;;7.00;99.90;;;;;;487302;244;27875;-75
2023/04/12 04:21:03;;;;;;;2.50;2.10;;;7.00;99.90;;;;;;487250;244;27993;-75
2023/04/12 04:23:05;;;;;;;3.13;2.00;;;7.10;99.90;;;;;;487302;244;27963;-75
2023/04/12 04:25:05;;;;;;;3.33;2.10;;;7.00;99.90;;;;;;487180;244;27850;-75
2023/04/12 04:27:06;;;;;;;3.60;1.80;;;7.10;99.90;;;;;;487319;244;28328;-75
2023/04/12 04:29:08;;;;;;;2.37;2.17;;;7.10;99.90;;;;;;487295;244;28332;-76
2023/04/12 04:31:09;;;;;;;2.70;2.33;;;7.10;99.90;;;;;;487261;244;28018;-75
2023/04/12 04:33:10;;;;;;;1.97;1.87;;;7.00;99.90;;;;;;487328;244;28593;-75
2023/04/12 04:35:15;;;;;;;2.80;2.33;;;7.00;99.90;;;;;;487260;244;28415;-75
2023/04/12 04:37:13;;;;;;;2.90;2.13;;;7.10;99.90;;;;;;487067;244;28349;-75
2023/04/12 04:39:14;;;;;;;3.47;2.10;;;7.10;99.90;;;;;;487325;244;27598;-75
2023/04/12 04:41:16;;;;;;;1.80;1.70;;;7.10;99.90;;;;;;487330;244;27959;-74
2023/04/12 04:43:17;;;;;;;2.53;2.13;;;7.10;99.90;;;;;;487281;244;27999;-75
2023/04/12 04:45:20;;;;;;;1.90;1.80;;;7.10;99.90;;;;;;487234;244;28072;-75
2023/04/12 04:47:21;;;;;;;2.77;1.87;;;7.20;99.90;;;;;;487117;244;27776;-75
2023/04/12 04:49:20;;;;;;;2.00;1.60;;;7.20;99.90;;;;;;487189;244;28001;-75
2023/04/12 04:51:21;;;;;;;2.07;1.87;;;7.20;99.90;;;;;;487289;244;27686;-76
2023/04/12 04:53:23;;;;;;;5.70;2.17;;;7.20;99.90;;;;;;487288;244;27940;-75
2023/04/12 04:55:24;;;;;;;2.10;1.90;;;7.30;99.90;;;;;;487278;244;28066;-76
2023/04/12 04:57:25;;;;;;;2.37;1.87;;;7.20;99.90;;;;;;487351;243;28241;-75
2023/04/12 04:59:26;;;;;;;2.17;1.93;;;7.20;99.90;;;;;;487324;244;27970;-75
2023/04/12 05:01:28;;;;;;;5.90;2.23;;;7.20;99.90;;;;;;487280;244;27829;-75
2023/04/12 05:03:29;;;;;;;2.17;1.97;;;7.20;99.90;;;;;;487251;244;27986;-75
2023/04/12 05:05:30;;;;;;;3.73;1.90;;;7.20;99.90;;;;;;487190;244;27986;-75
2023/04/12 05:07:31;;;;;;;2.00;1.90;;;7.20;99.90;;;;;;487268;244;27884;-75
2023/04/12 05:09:33;;;;;;;2.10;1.90;;;7.20;99.90;;;;;;487265;244;27851;-75
2023/04/12 05:11:34;;;;;;;2.30;2.10;;;7.30;99.90;;;;;;487274;244;28003;-75
2023/04/12 05:13:35;;;;;;;2.50;2.03;;;7.30;99.90;;;;;;487252;244;27761;-75
2023/04/12 05:15:36;;;;;;;4.20;1.40;;;7.30;99.90;;;;;;487128;244;27901;-75
2023/04/12 05:17:38;;;;;;;3.07;1.93;;;7.30;99.90;;;;;;487302;243;27999;-75
2023/04/12 05:19:40;;;;;;;3.53;2.10;;;7.30;99.90;;;;;;487300;244;27715;-75
2023/04/12 05:21:40;;;;;;;3.37;1.80;;;7.30;99.90;;;;;;487215;244;28035;-75
2023/04/12 05:23:41;;;;;;;2.20;1.80;;;7.30;99.90;;;;;;487272;244;27883;-75
2023/04/12 05:25:43;;;;;;;1.90;1.67;;;7.30;99.90;;;;;;487176;244;28532;-76
2023/04/12 05:27:44;;;;;;;2.00;1.90;;;7.30;99.90;;;;;;487299;244;28470;-75
2023/04/12 05:29:46;;;;;;;2.00;1.90;;;7.40;99.90;;;;;;487303;244;28322;-75
2023/04/12 05:31:46;;;;;;;3.20;2.00;;;7.30;99.90;;;;;;487304;244;28479;-75
2023/04/12 05:33:48;;;;;;;1.67;1.50;;;7.30;99.90;;;;;;487288;244;28411;-75
2023/04/12 05:35:49;;;;;;;2.80;2.10;;;7.40;99.90;;;;;;487202;244;28354;-75
2023/04/12 05:37:50;;;;;;;2.20;1.83;;;7.40;99.90;;;;;;487281;244;27915;-75
2023/04/12 05:39:51;;;;;;;3.53;1.87;;;7.30;99.90;;;;;;487300;244;27588;-75
2023/04/12 05:41:53;;;;;;;1.90;1.80;;;7.40;99.90;;;;;;487281;244;28017;-76
2023/04/12 05:43:54;;;;;;;3.03;1.60;;;7.30;99.90;;;;;;487279;244;28005;-75
2023/04/12 05:45:55;;;;;;;1.93;1.80;;;7.40;99.90;;;;;;487206;244;27859;-75
2023/04/12 05:47:56;;;;;;;2.30;1.60;;;7.50;99.90;;;;;;487314;244;27799;-76
2023/04/12 05:49:58;;;;;;;2.00;1.90;;;7.60;99.90;;;;;;487309;243;27682;-75
2023/04/12 05:51:59;;;;;;;2.37;2.03;;;7.40;99.90;;;;;;487265;244;27821;-75
2023/04/12 05:54:00;;;;;;;2.37;2.17;;;7.40;99.90;;;;;;487288;244;27910;-75
2023/04/12 05:56:01;;;;;;;13.33;2.67;;;7.40;99.90;;;;;;487216;244;27819;-75
2023/04/12 05:58:03;;;;;;;2.40;1.73;;;7.50;99.90;;;;;;487306;244;27983;-75
2023/04/12 06:00:07;;;;;;;2.57;2.17;;;7.50;99.90;;;;;;487248;244;27922;-75
2023/04/12 06:02:06;;;;;;;5.07;1.93;;;7.50;99.90;;;;;;487084;244;27999;-75
2023/04/12 06:04:07;;;;;;;3.27;2.17;;;7.60;99.90;;;;;;487253;244;28399;-75
2023/04/12 06:06:08;;;;;;;2.30;1.93;;;7.60;99.90;;;;;;487208;244;28364;-76
2023/04/12 06:08:09;;;;;;;2.13;1.90;;;7.60;99.90;;;;;;487306;244;28208;-75
2023/04/12 06:10:10;;;;;;;3.23;2.10;;;7.60;99.90;;;;;;487294;244;28275;-76
2023/04/12 06:12:11;;;;;;;3.57;2.20;;;7.60;99.90;;;;;;487283;244;28420;-75
2023/04/12 06:14:13;;;;;;;4.03;2.17;;;7.70;99.90;;;;;;487239;244;28028;-75
2023/04/12 06:16:14;;;;;;;1.80;1.70;;;7.60;99.90;;;;;;487240;244;28010;-76
2023/04/12 06:18:15;;;;;;;1.97;1.63;;;7.70;99.90;;;;;;487305;244;28079;-75
2023/04/12 06:20:16;;;;;;;3.70;2.13;;;7.70;99.90;;;;;;487309;244;27514;-76
2023/04/12 06:22:18;;;;;;;4.40;1.73;;;7.70;99.90;;;;;;487277;244;28043;-75
2023/04/12 06:24:19;;;;;;;3.30;1.80;;;7.70;99.90;;;;;;487241;244;27873;-76
2023/04/12 06:26:20;;;;;;;2.70;2.23;;;7.70;99.90;;;;;;487248;244;27923;-75
2023/04/12 06:28:21;;;;;;;4.63;2.57;;;7.70;99.90;;;;;;487305;244;27874;-75
2023/04/12 06:30:23;;;;;;;2.73;2.10;;;7.70;99.90;;;;;;487308;244;27891;-75
2023/04/12 06:32:24;;;;;;;3.07;2.33;;;7.70;99.90;;;;;;487309;244;27990;-75
2023/04/12 06:34:25;;;;;;;2.83;2.20;;;7.70;99.90;;;;;;487219;244;27878;-75
2023/04/12 06:36:26;;;;;;;5.57;1.90;;;7.80;99.90;;;;;;487290;244;27926;-75
2023/04/12 06:38:28;;;;;;;3.37;2.17;;;7.70;99.90;;;;;;487339;244;28076;-76
2023/04/12 06:40:29;;;;;;;1.80;1.70;;;7.80;99.90;;;;;;487323;244;27990;-75
2023/04/12 06:42:30;;;;;;;2.10;1.87;;;7.80;99.90;;;;;;487291;244;28222;-76
2023/04/12 06:44:32;;;;;;;2.47;2.27;;;7.80;99.90;;;;;;487215;244;28179;-76
2023/04/12 06:46:33;;;;;;;5.43;2.23;;;7.80;99.90;;;;;;487288;244;28450;-76
2023/04/12 06:48:34;;;;;;;4.40;2.00;;;7.80;99.90;;;;;;487338;244;28493;-75
2023/04/12 06:50:35;;;;;;;4.70;2.20;;;7.80;99.90;;;;;;487279;244;28328;-75
2023/04/12 06:52:36;;;;;;;3.70;2.20;;;7.70;99.90;;;;;;487299;244;27542;-75
2023/04/12 06:54:38;;;;;;;2.77;2.00;;;7.80;99.90;;;;;;487168;244;27892;-75
2023/04/12 06:56:39;;;;;;;2.90;2.00;;;7.80;99.90;;;;;;487250;244;27580;-75
2023/04/12 06:58:40;;;;;;;4.17;2.17;;;7.90;99.90;;;;;;487311;244;27908;-76
2023/04/12 07:00:41;;;;;;;4.33;2.10;;;8.10;99.90;;;;;;487319;244;28010;-76
2023/04/12 07:02:43;;;;;;;2.10;1.90;;;8.10;99.90;;;;;;487275;243;27808;-76
2023/04/12 07:04:44;;;;;;;2.13;1.93;;;8.10;99.90;;;;;;487198;244;27970;-76
2023/04/12 07:06:45;;;;;;;4.67;2.20;;;8.10;99.90;;;;;;487264;244;27790;-75
2023/04/12 07:08:47;;;;;;;4.63;2.17;;;8.10;99.90;;;;;;487313;244;27883;-76
2023/04/12 07:10:48;;;;;;;2.43;2.23;;;8.10;99.90;;;;;;487308;244;28286;-76
2023/04/12 07:12:50;;;;;;;1.70;1.60;;;8.20;99.90;;;;;;487319;243;27799;-76
2023/04/12 07:14:50;;;;;;;2.90;2.13;;;8.20;99.90;;;;;;487085;244;27945;-76
2023/04/12 07:16:51;;;;;;;2.43;2.20;;;8.20;99.90;;;;;;487269;244;27827;-76
2023/04/12 07:18:53;;;;;;;3.13;1.90;;;8.20;99.90;;;;;;487286;244;27430;-75
2023/04/12 07:20:54;;;;;;;3.60;2.33;;;8.30;99.90;;;;;;487299;244;28278;-75
2023/04/12 07:22:55;;;;;;;2.70;2.10;;;8.30;99.90;;;;;;487267;244;28485;-76
2023/04/12 07:24:56;;;;;;;4.27;1.93;;;8.20;99.90;;;;;;487244;244;28336;-76
2023/04/12 07:26:58;;;;;;;3.90;2.20;;;8.20;99.90;;;;;;487276;244;28227;-76
2023/04/12 07:28:59;;;;;;;3.13;2.30;;;8.10;99.90;;;;;;487250;244;28096;-75
2023/04/12 07:31:00;;;;;;;3.30;2.17;;;8.20;99.90;;;;;;487278;244;27914;-75
2023/04/12 07:33:04;;;;;;;2.90;2.07;;;8.10;99.90;;;;;;487277;244;27908;-76
2023/04/12 07:35:03;;;;;;;2.53;1.87;;;8.10;99.90;;;;;;487085;244;27993;-76
2023/04/12 07:37:04;;;;;;;2.43;2.00;;;8.20;99.90;;;;;;487274;244;27431;-75
2023/04/12 07:39:05;;;;;;;3.00;1.97;;;8.20;99.90;;;;;;487271;244;27999;-75
2023/04/12 07:41:06;;;;;;;3.57;2.00;;;8.20;99.90;;;;;;487304;244;27918;-75
2023/04/12 07:43:08;;;;;;;2.43;2.00;;;8.30;99.90;;;;;;487285;244;28044;-76
2023/04/12 07:45:09;;;;;;;3.67;3.00;;;8.30;99.90;;;;;;487228;244;28017;-76
2023/04/12 07:47:10;;;;;;;5.23;2.40;;;8.30;99.90;;;;;;487254;244;27929;-76
2023/04/12 07:49:11;;;;;;;3.80;2.20;;;8.30;99.90;;;;;;487253;244;27902;-75
2023/04/12 07:51:13;;;;;;;2.20;1.80;;;8.30;99.90;;;;;;487291;244;27847;-76
2023/04/12 07:53:14;;;;;;;3.97;2.17;;;8.30;99.90;;;;;;487258;244;27778;-76
2023/04/12 07:55:15;;;;;;;2.80;2.00;;;8.40;99.90;;;;;;487210;244;27833;-76
2023/04/12 07:57:16;;;;;;;3.53;2.50;;;8.30;99.90;;;;;;487277;244;27954;-75
2023/04/12 07:59:18;;;;;;;3.10;2.47;;;8.30;99.90;;;;;;487283;244;28277;-76
2023/04/12 08:01:19;;;;;;;5.13;2.40;;;8.30;99.90;;;;;;487329;244;28482;-76
2023/04/12 08:03:20;;;;;;;4.60;2.60;;;8.40;99.90;;;;;;487279;244;28382;-75
2023/04/12 08:05:21;;;;;;;4.87;2.53;;;8.40;99.90;;;;;;487223;244;28472;-75
2023/04/12 08:07:23;;;;;;;3.73;2.57;;;8.40;99.90;;;;;;487284;243;28399;-75
2023/04/12 08:09:24;;;;;;;3.53;2.53;;;8.40;99.90;;;;;;487284;244;27904;-75
2023/04/12 08:11:25;;;;;;;4.00;2.27;;;8.40;99.90;;;;;;487308;244;27762;-76
2023/04/12 08:13:26;;;;;;;3.43;2.30;;;8.50;99.90;;;;;;487319;244;27918;-76
2023/04/12 08:15:28;;;;;;;3.10;2.23;;;8.50;99.90;;;;;;487237;243;27518;-75
2023/04/12 08:17:29;;;;;;;4.30;2.57;;;8.50;99.90;;;;;;487218;244;27553;-75
2023/04/12 08:19:30;;;;;;;3.27;2.67;;;8.50;99.90;;;;;;487283;244;27870;-76
2023/04/12 08:21:32;;;;;;;2.40;2.20;;;8.50;99.90;;;;;;487332;244;27985;-76
2023/04/12 08:23:32;;;;;;;2.30;2.10;;;8.50;99.90;;;;;;487268;244;27878;-76
2023/04/12 08:25:34;;;;;;;6.07;2.37;;;8.60;99.90;;;;;;487210;244;27945;-76
2023/04/12 08:27:35;;;;;;;3.83;2.43;;;8.70;99.90;;;;;;487274;244;27937;-75
2023/04/12 08:29:36;;;;;;;3.30;2.40;;;8.70;99.90;;;;;;487267;244;27881;-76
2023/04/12 08:31:37;;;;;;;2.30;2.13;;;8.70;99.90;;;;;;487310;244;27885;-76
2023/04/12 08:33:39;;;;;;;2.40;2.20;;;8.60;99.90;;;;;;487299;244;28119;-76
2023/04/12 08:35:40;;;;;;;3.97;2.03;;;8.60;99.90;;;;;;487220;244;28264;-76
2023/04/12 08:37:41;;;;;;;6.60;2.63;;;8.60;99.90;;;;;;487294;244;28402;-76
2023/04/12 08:39:42;;;;;;;4.60;3.00;;;8.60;99.90;;;;;;487302;244;29118;-75
2023/04/12 08:41:44;;;;;;;2.97;2.30;;;8.60;99.90;;;;;;487325;244;28216;-76
2023/04/12 08:43:46;;;;;;;3.57;2.47;;;8.70;99.90;;;;;;487333;244;28186;-76
2023/04/12 08:45:48;;;;;;;2.90;2.60;;;8.80;99.90;;;;;;487240;244;28003;-75
2023/04/12 08:47:49;;;;;;;2.50;2.30;;;8.80;99.90;;;;;;487252;244;27797;-75
2023/04/12 08:49:50;;;;;;;2.80;2.37;;;8.90;99.90;;;;;;487200;244;28029;-76
2023/04/12 08:51:51;;;;;;;4.10;2.70;;;9.00;99.90;;;;;;487300;244;28500;-76
2023/04/12 08:53:52;;;;;;;3.43;2.60;;;9.00;99.90;;;;;;487329;244;28441;-76
2023/04/12 08:55:54;;;;;;;3.87;2.93;;;9.00;99.90;;;;;;487230;243;28413;-76
2023/04/12 08:57:58;;;;;;;2.40;2.20;;;9.10;99.90;;;;;;487295;244;28333;-76
2023/04/12 08:59:56;;;;;;;5.80;2.90;;;9.10;99.90;;;;;;486717;244;28613;-76
2023/04/12 09:01:57;;;;;;;3.10;2.47;;;9.20;99.90;;;;;;487296;244;28537;-76
2023/04/12 09:03:59;;;;;;;3.33;2.60;;;9.20;99.90;;;;;;487295;244;28066;-76
2023/04/12 09:06:00;;;;;;;4.30;3.00;;;9.20;99.90;;;;;;487244;244;28055;-75
2023/04/12 09:08:01;;;;;;;4.03;2.97;;;9.30;99.90;;;;;;487292;244;27980;-76
2023/04/12 09:10:03;;;;;;;4.43;2.77;;;9.30;99.90;;;;;;487267;244;27921;-76
2023/04/12 09:12:04;;;;;;;3.13;2.43;;;9.30;99.90;;;;;;487241;244;28016;-75
2023/04/12 09:14:05;;;;;;;4.63;2.33;;;9.20;99.90;;;;;;487298;244;28093;-75
2023/04/12 09:16:06;;;;;;;2.97;2.50;;;9.30;99.90;;;;;;487242;244;27903;-76
2023/04/12 09:18:07;;;;;;;2.53;2.27;;;9.20;99.90;;;;;;487258;244;28007;-76
2023/04/12 09:20:09;;;;;;;4.13;2.20;;;9.30;99.90;;;;;;487270;244;28039;-76
2023/04/12 09:22:10;;;;;;;2.50;2.03;;;9.40;99.90;;;;;;487281;244;27668;-76
2023/04/12 09:24:12;;;;;;;3.03;2.27;;;9.30;99.90;;;;;;487283;244;28013;-76
2023/04/12 09:26:12;;;;;;;2.83;2.50;;;9.30;99.90;;;;;;487261;244;28175;-76
2023/04/12 09:28:14;;;;;;;3.47;2.12;;;9.40;99.90;;;;;;485110;244;36458;-76
2023/04/12 09:30:15;;;;;;;2.67;2.13;;;9.40;99.90;;;;;;487280;244;27922;-76
2023/04/12 09:32:16;;;;;;;2.40;2.20;;;9.40;99.90;;;;;;487244;244;28572;-75
2023/04/12 09:34:17;;;;;;;4.03;2.43;;;9.50;99.90;;;;;;487275;244;28477;-76
2023/04/12 09:36:19;;;;;;;2.83;2.53;;;9.50;99.90;;;;;;487291;244;28676;-76
2023/04/12 09:38:20;;;;;;;3.30;2.37;;;9.50;99.90;;;;;;487295;244;28373;-76
2023/04/12 09:40:21;;;;;;;2.10;2.00;;;9.50;99.90;;;;;;487271;244;28068;-76
2023/04/12 09:42:22;;;;;;;3.00;2.63;;;9.60;99.90;;;;;;487259;244;28060;-76
2023/04/12 09:44:24;;;;;;;3.23;2.00;;;9.70;99.90;;;;;;487208;244;28028;-76
2023/04/12 09:46:25;;;;;;;3.30;2.53;;;9.70;99.90;;;;;;487303;244;27910;-76
2023/04/12 09:48:27;;;;;;;4.03;3.00;;;9.70;99.90;;;;;;487292;244;28181;-76
2023/04/12 09:50:27;;;;;;;3.63;2.30;;;9.70;99.90;;;;;;487236;244;27991;-76
2023/04/12 09:52:29;;;;;;;4.47;2.40;;;9.70;99.90;;;;;;487259;244;27959;-76
2023/04/12 09:54:30;;;;;;;2.37;2.17;;;9.70;99.90;;;;;;487241;244;28120;-75
2023/04/12 09:56:31;;;;;;;3.47;2.20;;;9.70;99.90;;;;;;487317;244;28073;-77
2023/04/12 09:58:32;;;;;;;3.70;2.43;;;9.80;99.90;;;;;;487302;244;28068;-75
2023/04/12 10:00:34;;;;;;;2.53;2.33;;;9.90;99.90;;;;;;487251;243;28233;-76
2023/04/12 10:02:35;;;;;;;2.10;1.80;;;9.90;99.90;;;;;;487313;244;28595;-76
2023/04/12 10:04:36;;;;;;;3.03;2.37;;;9.90;99.90;;;;;;487199;244;28648;-76
2023/04/12 10:06:37;;;;;;;2.90;2.17;;;9.90;99.90;;;;;;487325;244;28680;-77
2023/04/12 10:08:39;;;;;;;2.60;2.07;;;10.10;99.90;;;;;;487308;244;28112;-76
2023/04/12 10:10:40;;;;;;;2.23;2.03;;;10.10;99.90;;;;;;487311;244;28242;-75
2023/04/12 10:12:41;;;;;;;2.07;1.90;;;10.10;99.90;;;;;;487258;244;28122;-76
2023/04/12 10:14:42;;;;;;;2.60;2.40;;;10.20;99.90;;;;;;487245;244;28319;-76
2023/04/12 10:16:44;;;;;;;2.57;1.90;;;10.10;99.90;;;;;;487308;244;28771;-77
2023/04/12 10:18:46;;;;;;;1.80;1.70;;;10.10;99.90;;;;;;487300;244;28545;-76
2023/04/12 10:20:46;;;;;;;2.97;1.83;;;10.10;99.90;;;;;;487289;244;28704;-76
2023/04/12 10:22:47;;;;;;;1.73;1.63;;;10.10;99.90;;;;;;487301;244;28180;-76
2023/04/12 10:24:49;;;;;;;3.60;2.50;;;10.10;99.90;;;;;;487226;244;28273;-75
2023/04/12 10:26:50;;;;;;;1.83;1.73;;;10.10;99.90;;;;;;487360;244;28235;-76
2023/04/12 10:28:51;;;;;;;3.20;2.20;;;10.00;99.90;;;;;;487357;244;28111;-76
2023/04/12 10:30:53;;;;;;;4.17;2.07;;;10.00;99.90;;;;;;487308;244;28065;-76
2023/04/12 10:32:54;;;;;;;2.20;2.00;;;10.10;99.90;;;;;;487309;244;27967;-76
2023/04/12 10:34:55;;;;;;;2.50;2.30;;;10.10;99.90;;;;;;487244;244;28194;-76
2023/04/12 10:36:56;;;;;;;2.97;2.10;;;10.20;99.90;;;;;;487319;244;28436;-76